createdAt,value
2023-01-13T00:01:11.878Z,6.70
2023-01-13T00:03:39.427Z,6.70
2023-01-13T00:06:07.315Z,6.80
2023-01-13T00:08:34.584Z,6.80
2023-01-13T00:11:01.794Z,6.70
2023-01-13T00:13:29.048Z,6.80
2023-01-13T00:16:00.777Z,6.80
2023-01-13T00:18:28.310Z,6.80
2023-01-13T00:21:02.291Z,6.80
2023-01-13T00:23:31.253Z,6.90
2023-01-13T00:26:00.626Z,6.80
2023-01-13T00:28:28.299Z,6.80
2023-01-13T00:30:58.783Z,6.80
2023-01-13T00:33:27.884Z,6.80
2023-01-13T00:35:58.959Z,6.80
2023-01-13T00:38:26.300Z,6.80
2023-01-13T00:41:01.870Z,6.80
2023-01-13T00:43:31.218Z,6.80
2023-01-13T00:45:58.766Z,6.80
2023-01-13T00:48:26.908Z,6.80
2023-01-13T00:51:15.014Z,6.80
2023-01-13T00:53:45.374Z,6.80
2023-01-13T00:56:22.121Z,6.80
2023-01-13T00:58:58.862Z,6.80
2023-01-13T01:01:27.134Z,6.90
2023-01-13T01:03:55.450Z,6.90
2023-01-13T01:06:25.572Z,6.90
2023-01-13T01:08:53.392Z,6.90
2023-01-13T01:11:26.481Z,6.80
2023-01-13T01:13:55.936Z,6.90
2023-01-13T01:16:25.375Z,6.90
2023-01-13T01:18:54.704Z,6.80
2023-01-13T01:21:23.729Z,6.80
2023-01-13T01:23:51.102Z,6.80
2023-01-13T01:26:24.196Z,6.80
2023-01-13T01:28:51.942Z,6.80
2023-01-13T01:31:20.436Z,6.80
2023-01-13T01:33:48.197Z,6.80
2023-01-13T01:36:17.294Z,6.80
2023-01-13T01:38:48.590Z,6.70
2023-01-13T01:41:21.792Z,6.70
2023-01-13T01:44:06.937Z,6.70
2023-01-13T01:46:42.993Z,6.70
2023-01-13T01:49:22.658Z,6.70
2023-01-13T01:52:01.395Z,6.70
2023-01-13T01:54:37.710Z,6.70
2023-01-13T01:57:06.126Z,6.70
2023-01-13T01:59:36.149Z,6.70
2023-01-13T02:02:03.728Z,6.70
2023-01-13T02:04:39.269Z,6.70
2023-01-13T02:07:06.967Z,6.70
2023-01-13T02:09:36.079Z,6.70
2023-01-13T02:12:21.910Z,6.70
2023-01-13T02:14:49.119Z,6.70
2023-01-13T02:17:21.753Z,6.70
2023-01-13T02:20:16.653Z,6.70
2023-01-13T02:23:31.740Z,6.60
2023-01-13T02:26:25.725Z,6.70
2023-01-13T02:29:40.072Z,6.70
2023-01-13T02:32:17.848Z,6.70
2023-01-13T02:34:55.740Z,6.70
2023-01-13T02:37:31.275Z,6.70
2023-01-13T02:40:06.033Z,6.70
2023-01-13T02:42:59.856Z,6.70
2023-01-13T02:45:46.611Z,6.70
2023-01-13T02:48:15.411Z,6.80
2023-01-13T02:50:48.210Z,6.80
2023-01-13T02:53:20.923Z,6.80
2023-01-13T02:55:51.774Z,6.80
2023-01-13T02:58:23.303Z,6.90
2023-01-13T03:00:51.002Z,6.90
2023-01-13T03:03:18.148Z,6.80
2023-01-13T03:05:49.012Z,6.80
2023-01-13T03:08:19.207Z,6.90
2023-01-13T03:11:04.209Z,6.80
2023-01-13T03:13:49.534Z,6.80
2023-01-13T03:16:41.606Z,6.90
2023-01-13T03:19:24.890Z,6.80
2023-01-13T03:21:55.495Z,6.70
2023-01-13T03:24:56.771Z,6.70
2023-01-13T03:27:46.913Z,6.60
2023-01-13T03:30:23.748Z,6.60
2023-01-13T03:32:54.123Z,6.60
2023-01-13T03:35:35.215Z,6.60
2023-01-13T03:38:15.510Z,6.50
2023-01-13T03:40:57.769Z,6.50
2023-01-13T03:43:49.177Z,6.40
2023-01-13T03:46:29.819Z,6.40
2023-01-13T03:48:59.881Z,6.40
2023-01-13T03:51:30.274Z,6.40
2023-01-13T03:54:02.679Z,6.40
2023-01-13T03:56:36.243Z,6.40
2023-01-13T03:59:08.143Z,6.40
2023-01-13T04:02:05.253Z,6.40
2023-01-13T04:04:49.783Z,6.40
2023-01-13T04:07:55.718Z,6.40
2023-01-13T04:10:34.714Z,6.40
2023-01-13T04:13:14.604Z,6.40
2023-01-13T04:15:46.516Z,6.30
2023-01-13T04:18:13.619Z,6.30
2023-01-13T04:20:41.918Z,6.30
2023-01-13T04:23:10.689Z,6.30
2023-01-13T04:25:37.938Z,6.20
2023-01-13T04:28:05.294Z,6.20
2023-01-13T04:30:32.647Z,6.30
2023-01-13T04:32:59.588Z,6.20
2023-01-13T04:35:26.735Z,6.30
2023-01-13T04:37:53.902Z,6.30
2023-01-13T04:40:21.059Z,6.30
2023-01-13T04:42:48.613Z,6.30
2023-01-13T04:45:15.702Z,6.30
2023-01-13T04:47:42.947Z,6.30
2023-01-13T04:50:11.812Z,6.30
2023-01-13T04:52:39.570Z,6.40
2023-01-13T04:55:08.135Z,6.40
2023-01-13T04:57:35.204Z,6.40
2023-01-13T05:00:02.188Z,6.40
2023-01-13T05:02:29.129Z,6.40
2023-01-13T05:04:56.016Z,6.40
2023-01-13T05:07:22.992Z,6.40
2023-01-13T05:09:50.163Z,6.40
2023-01-13T05:12:35.837Z,6.30
2023-01-13T05:15:22.020Z,6.40
2023-01-13T05:17:49.897Z,6.40
2023-01-13T05:20:18.296Z,6.30
2023-01-13T05:23:03.645Z,6.30
2023-01-13T05:25:32.640Z,6.30
2023-01-13T05:28:00.405Z,6.30
2023-01-13T05:30:30.167Z,6.40
2023-01-13T05:32:58.438Z,6.30
2023-01-13T05:35:25.855Z,6.40
2023-01-13T05:37:55.442Z,6.40
2023-01-13T05:40:41.506Z,6.40
2023-01-13T05:43:20.117Z,6.40
2023-01-13T05:45:50.507Z,6.40
2023-01-13T05:48:19.237Z,6.40
2023-01-13T05:50:47.472Z,6.40
2023-01-13T05:53:14.517Z,6.40
2023-01-13T05:55:43.307Z,6.50
2023-01-13T05:58:12.167Z,6.50
2023-01-13T06:00:41.738Z,6.50
2023-01-13T06:03:09.535Z,6.50
2023-01-13T06:05:36.749Z,6.50
2023-01-13T06:08:06.271Z,6.50
2023-01-13T06:10:34.278Z,6.50
2023-01-13T06:13:01.593Z,6.50
2023-01-13T06:15:28.864Z,6.50
2023-01-13T06:17:57.186Z,6.50
2023-01-13T06:20:24.919Z,6.50
2023-01-13T06:22:53.930Z,6.50
2023-01-13T06:25:42.845Z,6.50
2023-01-13T06:28:10.434Z,6.50
2023-01-13T06:30:46.522Z,6.50
2023-01-13T06:33:21.779Z,6.50
2023-01-13T06:35:59.431Z,6.50
2023-01-13T06:38:29.472Z,6.50
2023-01-13T06:40:56.542Z,6.50
2023-01-13T06:43:23.447Z,6.50
2023-01-13T06:45:55.228Z,6.50
2023-01-13T06:48:33.129Z,6.60
2023-01-13T06:51:00.407Z,6.50
2023-01-13T06:53:27.450Z,6.50
2023-01-13T06:55:54.511Z,6.60
2023-01-13T06:58:21.352Z,6.60
2023-01-13T07:00:51.645Z,6.60
2023-01-13T07:03:19.797Z,6.60
2023-01-13T07:05:56.453Z,6.60
2023-01-13T07:08:24.654Z,6.60
2023-01-13T07:10:54.299Z,6.60
2023-01-13T07:13:39.691Z,6.60
2023-01-13T07:16:08.771Z,6.60
2023-01-13T07:18:36.569Z,7.50
2023-01-13T07:21:09.019Z,6.70
2023-01-13T07:23:38.615Z,6.70
2023-01-13T07:26:07.101Z,6.70
2023-01-13T07:28:35.059Z,6.70
2023-01-13T07:31:02.351Z,6.70
2023-01-13T07:33:33.554Z,6.70
2023-01-13T07:36:05.238Z,6.80
2023-01-13T07:38:33.827Z,6.80
2023-01-13T07:41:20.397Z,6.80
2023-01-13T07:43:47.862Z,6.90
2023-01-13T07:46:15.008Z,6.80
2023-01-13T07:48:42.222Z,6.90
2023-01-13T07:51:11.791Z,6.90
2023-01-13T07:53:39.923Z,7.00
2023-01-13T07:56:07.911Z,7.00
2023-01-13T07:58:36.748Z,7.00
2023-01-13T08:01:12.934Z,7.10
2023-01-13T08:03:41.115Z,7.10
2023-01-13T08:06:10.686Z,7.00
2023-01-13T08:08:38.721Z,7.10
2023-01-13T08:11:07.638Z,7.10
2023-01-13T08:13:35.163Z,7.10
2023-01-13T08:16:13.391Z,7.20
2023-01-13T08:18:40.680Z,7.20
2023-01-13T08:21:13.982Z,7.20
2023-01-13T08:23:42.285Z,7.30
2023-01-13T08:26:12.080Z,7.30
2023-01-13T08:28:40.544Z,7.30
2023-01-13T08:31:16.511Z,7.40
2023-01-13T08:33:43.899Z,7.40
2023-01-13T08:36:12.682Z,7.50
2023-01-13T08:38:40.757Z,7.50
2023-01-13T08:41:36.156Z,7.50
2023-01-13T08:44:03.327Z,7.50
2023-01-13T08:46:30.337Z,7.50
2023-01-13T08:48:57.409Z,7.60
2023-01-13T08:51:24.347Z,7.60
2023-01-13T08:53:51.164Z,7.50
2023-01-13T08:56:18.166Z,7.60
2023-01-13T08:58:45.260Z,7.60
2023-01-13T09:01:18.353Z,7.60
2023-01-13T09:03:45.424Z,7.60
2023-01-13T09:06:12.446Z,7.60
2023-01-13T09:08:39.413Z,7.60
2023-01-13T09:11:26.636Z,7.60
2023-01-13T09:13:53.574Z,7.70
2023-01-13T09:16:20.487Z,7.70
2023-01-13T09:18:47.575Z,7.20
2023-01-13T09:21:15.212Z,7.70
2023-01-13T09:23:42.281Z,7.70
2023-01-13T09:26:09.887Z,7.70
2023-01-13T09:28:36.959Z,7.70
2023-01-13T09:31:04.076Z,7.70
2023-01-13T09:33:49.424Z,7.70
2023-01-13T09:36:16.284Z,7.70
2023-01-13T09:38:43.097Z,7.80
2023-01-13T09:41:46.588Z,7.80
2023-01-13T09:44:20.086Z,7.80
2023-01-13T09:46:52.502Z,7.90
2023-01-13T09:49:24.165Z,7.90
2023-01-13T09:52:09.631Z,7.90
2023-01-13T09:55:05.362Z,8.00
2023-01-13T09:57:38.389Z,8.00
2023-01-13T10:00:29.015Z,8.00
2023-01-13T10:03:23.768Z,8.10
2023-01-13T10:05:56.581Z,8.10
2023-01-13T10:08:38.550Z,8.10
2023-01-13T10:11:28.724Z,8.20
2023-01-13T10:14:03.155Z,8.30
2023-01-13T10:16:42.219Z,8.30
2023-01-13T10:19:24.368Z,8.30
2023-01-13T10:22:13.627Z,8.40
2023-01-13T10:25:01.985Z,8.60
2023-01-13T10:27:38.423Z,8.50
2023-01-13T10:30:33.021Z,8.50
2023-01-13T10:33:09.777Z,8.60
2023-01-13T10:35:49.827Z,8.60
2023-01-13T10:38:30.769Z,8.70
2023-01-13T10:41:00.344Z,8.70
2023-01-13T10:43:28.589Z,8.80
2023-01-13T10:46:05.314Z,8.80
2023-01-13T10:48:38.995Z,8.80
2023-01-13T10:51:18.288Z,8.90
2023-01-13T10:53:50.489Z,8.90
2023-01-13T10:56:19.538Z,8.90
2023-01-13T10:58:46.827Z,8.90
2023-01-13T11:01:34.195Z,9.00
2023-01-13T11:04:01.380Z,9.00
2023-01-13T11:06:30.940Z,9.00
2023-01-13T11:08:58.618Z,9.10
2023-01-13T11:11:39.228Z,9.10
2023-01-13T11:14:40.222Z,8.90
2023-01-13T11:17:10.035Z,9.10
2023-01-13T11:19:45.724Z,9.10
2023-01-13T11:22:35.275Z,9.10
2023-01-13T11:25:05.877Z,9.10
2023-01-13T11:27:44.792Z,9.10
2023-01-13T11:30:22.111Z,9.00
2023-01-13T11:33:08.140Z,9.00
2023-01-13T11:35:40.779Z,9.00
2023-01-13T11:38:31.732Z,9.00
2023-01-13T11:41:08.206Z,9.10
2023-01-13T11:43:45.780Z,9.10
2023-01-13T11:46:12.775Z,9.20
2023-01-13T11:48:42.309Z,9.20
2023-01-13T11:51:15.172Z,9.20
2023-01-13T11:53:55.452Z,9.20
2023-01-13T11:56:41.170Z,9.20
2023-01-13T11:59:42.022Z,9.20
2023-01-13T12:02:27.092Z,9.20
2023-01-13T12:05:26.190Z,9.30
2023-01-13T12:08:20.851Z,9.30
2023-01-13T12:11:04.945Z,9.30
2023-01-13T12:13:46.965Z,9.30
2023-01-13T12:16:31.049Z,9.30
2023-01-13T12:18:57.978Z,9.40
2023-01-13T12:21:29.787Z,9.50
2023-01-13T12:24:23.103Z,9.60
2023-01-13T12:26:57.038Z,9.60
2023-01-13T12:29:34.196Z,9.70
2023-01-13T12:32:04.864Z,9.70
2023-01-13T12:34:59.002Z,9.70
2023-01-13T12:37:34.965Z,9.70
2023-01-13T12:40:18.884Z,9.70
2023-01-13T12:43:20.182Z,9.70
2023-01-13T12:45:47.243Z,9.70
2023-01-13T12:48:45.242Z,9.70
2023-01-13T12:51:22.848Z,9.70
2023-01-13T12:53:50.060Z,9.70
2023-01-13T12:56:44.695Z,9.70
2023-01-13T12:59:19.005Z,9.70
2023-01-13T13:01:50.407Z,9.70
2023-01-13T13:04:41.429Z,9.70
2023-01-13T13:07:17.391Z,9.70
2023-01-13T13:09:51.417Z,9.70
2023-01-13T13:12:52.016Z,9.70
2023-01-13T13:15:24.942Z,9.70
2023-01-13T13:18:27.414Z,9.70
2023-01-13T13:20:56.682Z,9.70
2023-01-13T13:23:38.951Z,9.70
2023-01-13T13:26:46.685Z,9.60
2023-01-13T13:29:35.067Z,9.70
2023-01-13T13:32:20.050Z,9.70
2023-01-13T13:35:25.364Z,9.70
2023-01-13T13:38:29.560Z,9.70
2023-01-13T13:41:15.404Z,9.70
2023-01-13T13:44:03.089Z,9.60
2023-01-13T13:46:48.022Z,9.60
2023-01-13T13:49:17.574Z,9.60
2023-01-13T13:52:10.917Z,9.50
2023-01-13T13:54:41.177Z,9.50
2023-01-13T13:57:22.656Z,9.50
2023-01-13T13:59:58.476Z,9.50
2023-01-13T14:02:36.559Z,9.50
2023-01-13T14:05:15.543Z,9.50
2023-01-13T14:07:45.137Z,9.40
2023-01-13T14:10:18.521Z,9.40
2023-01-13T14:12:45.605Z,9.30
2023-01-13T14:15:34.608Z,9.30
2023-01-13T14:18:05.194Z,9.30
2023-01-13T14:20:34.559Z,9.30
2023-01-13T14:23:01.820Z,9.20
2023-01-13T14:25:45.838Z,9.20
2023-01-13T14:28:22.620Z,9.20
2023-01-13T14:30:52.203Z,9.20
2023-01-13T14:33:46.949Z,9.10
2023-01-13T14:36:16.923Z,9.20
2023-01-13T14:39:10.429Z,9.20
2023-01-13T14:41:49.013Z,9.20
2023-01-13T14:44:32.362Z,9.20
2023-01-13T14:47:16.797Z,9.20
2023-01-13T14:50:02.566Z,9.20
2023-01-13T14:52:38.289Z,9.20
2023-01-13T14:55:10.088Z,9.20
2023-01-13T14:57:39.586Z,9.20
2023-01-13T15:00:19.652Z,9.20
2023-01-13T15:02:53.432Z,9.20
2023-01-13T15:05:20.570Z,9.20
2023-01-13T15:08:02.021Z,9.20
2023-01-13T15:10:50.668Z,9.30
2023-01-13T15:13:32.063Z,9.30
2023-01-13T15:16:03.066Z,9.30
2023-01-13T15:18:30.386Z,9.30
2023-01-13T15:20:57.534Z,9.30
2023-01-13T15:23:24.669Z,9.30
2023-01-13T15:25:51.775Z,9.30
2023-01-13T15:28:25.869Z,9.30
2023-01-13T15:30:54.786Z,9.30
2023-01-13T15:33:23.256Z,9.30
2023-01-13T15:35:53.028Z,9.30
2023-01-13T15:38:22.218Z,9.30
2023-01-13T15:40:50.919Z,9.30
2023-01-13T15:43:41.841Z,9.30
2023-01-13T15:46:35.743Z,9.30
2023-01-13T15:49:09.953Z,9.30
2023-01-13T15:51:38.852Z,9.30
2023-01-13T15:54:08.762Z,9.30
2023-01-13T15:56:38.011Z,9.30
2023-01-13T15:59:06.920Z,9.30
2023-01-13T16:01:34.027Z,9.30
2023-01-13T16:04:01.182Z,9.30
2023-01-13T16:06:36.241Z,9.40
2023-01-13T16:09:04.507Z,9.30
2023-01-13T16:11:31.883Z,9.40
2023-01-13T16:13:58.993Z,9.40
2023-01-13T16:16:28.327Z,9.40
2023-01-13T16:18:56.272Z,9.40
2023-01-13T16:21:23.877Z,9.40
2023-01-13T16:23:52.301Z,9.40
2023-01-13T16:26:26.629Z,9.40
2023-01-13T16:28:55.459Z,9.40
2023-01-13T16:31:32.096Z,9.40
2023-01-13T16:34:03.310Z,9.40
2023-01-13T16:36:33.988Z,9.40
2023-01-13T16:39:01.932Z,9.40
2023-01-13T16:41:28.822Z,9.40
2023-01-13T16:43:55.964Z,9.40
2023-01-13T16:46:26.976Z,9.50
2023-01-13T16:48:56.472Z,9.40
2023-01-13T16:51:24.890Z,9.50
2023-01-13T16:53:52.403Z,9.40
2023-01-13T16:56:27.052Z,9.50
2023-01-13T16:58:57.142Z,9.50
2023-01-13T17:01:32.364Z,9.50
2023-01-13T17:03:59.967Z,9.40
2023-01-13T17:06:36.958Z,9.50
2023-01-13T17:09:15.769Z,9.50
2023-01-13T17:11:42.944Z,9.50
2023-01-13T17:14:18.864Z,9.50
2023-01-13T17:16:47.471Z,9.50
2023-01-13T17:19:14.913Z,9.50
2023-01-13T17:21:42.403Z,9.50
2023-01-13T17:24:12.353Z,9.50
2023-01-13T17:26:47.204Z,9.40
2023-01-13T17:29:19.550Z,9.40
2023-01-13T17:31:46.661Z,9.50
2023-01-13T17:34:13.918Z,9.40
2023-01-13T17:36:43.385Z,9.40
2023-01-13T17:39:19.789Z,9.50
2023-01-13T17:41:47.444Z,9.40
2023-01-13T17:44:15.123Z,9.40
2023-01-13T17:46:43.069Z,9.40
2023-01-13T17:49:14.685Z,9.40
2023-01-13T17:51:41.748Z,9.40
2023-01-13T17:54:12.689Z,9.30
2023-01-13T17:56:40.840Z,9.30
2023-01-13T17:59:10.494Z,9.30
2023-01-13T18:01:38.524Z,9.20
2023-01-13T18:04:07.029Z,9.20
2023-01-13T18:06:34.717Z,9.20
2023-01-13T18:09:01.837Z,9.20
2023-01-13T18:11:28.707Z,9.10
2023-01-13T18:13:58.805Z,9.10
2023-01-13T18:16:30.506Z,9.10
2023-01-13T18:19:18.757Z,9.10
2023-01-13T18:22:06.076Z,9.10
2023-01-13T18:24:51.873Z,9.10
2023-01-13T18:27:26.582Z,9.10
2023-01-13T18:29:58.644Z,9.20
2023-01-13T18:32:32.679Z,9.20
2023-01-13T18:35:06.000Z,9.20
2023-01-13T18:37:36.033Z,9.20
2023-01-13T18:40:04.147Z,9.20
2023-01-13T18:42:49.948Z,9.20
2023-01-13T18:45:17.803Z,9.20
2023-01-13T18:47:44.610Z,9.20
2023-01-13T18:50:14.328Z,9.20
2023-01-13T18:52:41.480Z,9.20
2023-01-13T18:55:09.398Z,9.20
2023-01-13T18:57:45.954Z,9.20
2023-01-13T19:00:17.217Z,9.20
2023-01-13T19:02:47.233Z,9.20
2023-01-13T19:05:14.555Z,9.30
2023-01-13T19:07:43.476Z,9.30
2023-01-13T19:10:12.996Z,9.20
2023-01-13T19:12:40.077Z,9.30
2023-01-13T19:15:07.807Z,9.20
2023-01-13T19:17:35.902Z,9.30
2023-01-13T19:20:04.975Z,9.20
2023-01-13T19:22:35.446Z,9.30
2023-01-13T19:25:03.447Z,9.30
2023-01-13T19:27:30.929Z,9.30
2023-01-13T19:30:00.451Z,9.30
2023-01-13T19:32:28.552Z,9.30
2023-01-13T19:34:59.258Z,9.30
2023-01-13T19:37:30.254Z,9.30
2023-01-13T19:40:00.362Z,9.30
2023-01-13T19:42:45.961Z,9.00
2023-01-13T19:45:26.602Z,9.20
2023-01-13T19:47:54.733Z,9.20
2023-01-13T19:50:21.938Z,9.20
2023-01-13T19:52:48.763Z,9.20
2023-01-13T19:55:15.644Z,9.20
2023-01-13T19:57:43.470Z,9.20
2023-01-13T20:00:14.067Z,9.20
2023-01-13T20:02:47.771Z,9.20
2023-01-13T20:05:21.174Z,9.20
2023-01-13T20:07:49.571Z,9.10
2023-01-13T20:10:18.452Z,9.10
2023-01-13T20:12:45.533Z,9.10
2023-01-13T20:15:12.586Z,9.10
2023-01-13T20:17:41.360Z,9.10
2023-01-13T20:20:09.685Z,9.10
2023-01-13T20:22:38.843Z,9.10
2023-01-13T20:25:06.332Z,9.10
2023-01-13T20:27:33.453Z,9.10
2023-01-13T20:30:00.601Z,9.10
2023-01-13T20:32:27.587Z,9.10
2023-01-13T20:34:54.515Z,9.00
2023-01-13T20:37:21.414Z,9.00
2023-01-13T20:39:48.492Z,9.00
2023-01-13T20:42:31.644Z,9.00
2023-01-13T20:45:00.304Z,8.90
2023-01-13T20:47:28.604Z,8.90
2023-01-13T20:49:55.646Z,8.90
2023-01-13T20:52:23.259Z,8.90
2023-01-13T20:54:50.437Z,8.80
2023-01-13T20:57:17.511Z,8.80
2023-01-13T20:59:44.451Z,8.80
2023-01-13T21:02:14.125Z,8.80
2023-01-13T21:04:41.568Z,8.80
2023-01-13T21:07:08.997Z,8.80
2023-01-13T21:09:36.655Z,8.70
2023-01-13T21:12:22.856Z,8.70
2023-01-13T21:15:08.722Z,8.70
2023-01-13T21:17:54.945Z,8.70
2023-01-13T21:20:21.905Z,8.60
2023-01-13T21:22:49.552Z,8.60
2023-01-13T21:25:18.153Z,8.60
2023-01-13T21:27:45.457Z,8.60
2023-01-13T21:30:15.065Z,8.50
2023-01-13T21:32:43.345Z,8.60
2023-01-13T21:35:10.924Z,8.50
2023-01-13T21:37:39.052Z,8.50
2023-01-13T21:40:08.234Z,8.50
2023-01-13T21:42:53.965Z,8.50
2023-01-13T21:45:39.571Z,8.50
2023-01-13T21:48:07.245Z,8.50
2023-01-13T21:50:34.727Z,8.50
2023-01-13T21:53:02.172Z,8.40
2023-01-13T21:55:29.482Z,8.40
2023-01-13T21:57:57.900Z,8.40
2023-01-13T22:00:30.874Z,8.30
2023-01-13T22:03:01.129Z,8.30
2023-01-13T22:05:28.310Z,8.20
2023-01-13T22:07:55.690Z,8.10
2023-01-13T22:10:25.572Z,8.10
2023-01-13T22:12:54.215Z,8.10
2023-01-13T22:15:22.383Z,8.00
2023-01-13T22:17:53.581Z,8.00
2023-01-13T22:20:21.498Z,7.90
2023-01-13T22:22:48.818Z,7.90
2023-01-13T22:25:17.109Z,7.80
2023-01-13T22:27:45.009Z,7.80
2023-01-13T22:30:18.367Z,7.80
2023-01-13T22:32:45.983Z,7.70
2023-01-13T22:35:15.061Z,7.70
2023-01-13T22:37:42.907Z,7.70
2023-01-13T22:40:11.881Z,7.70
2023-01-13T22:42:40.495Z,7.60
2023-01-13T22:45:10.741Z,7.60
2023-01-13T22:47:37.941Z,7.60
2023-01-13T22:50:06.414Z,7.60
2023-01-13T22:52:34.382Z,7.60
2023-01-13T22:55:01.779Z,7.60
2023-01-13T22:57:38.847Z,7.60
2023-01-13T23:00:15.021Z,7.60
2023-01-13T23:02:42.104Z,7.60
2023-01-13T23:05:09.298Z,7.50
2023-01-13T23:07:36.461Z,7.50
2023-01-13T23:10:04.462Z,7.50
2023-01-13T23:12:31.438Z,7.50
2023-01-13T23:14:58.431Z,7.50
2023-01-13T23:17:25.573Z,7.50
2023-01-13T23:19:52.612Z,7.50
2023-01-13T23:22:19.620Z,7.50
2023-01-13T23:24:46.721Z,7.50
2023-01-13T23:27:13.778Z,7.50
2023-01-13T23:29:40.968Z,7.50
2023-01-13T23:32:08.032Z,7.60
2023-01-13T23:34:35.065Z,7.60
2023-01-13T23:37:01.938Z,7.50
2023-01-13T23:39:28.810Z,7.50
2023-01-13T23:41:55.954Z,7.50
2023-01-13T23:44:23.294Z,7.50
2023-01-13T23:46:50.252Z,7.50
2023-01-13T23:49:17.436Z,7.50
2023-01-13T23:51:44.567Z,7.50
2023-01-13T23:54:11.675Z,7.50
2023-01-13T23:56:39.637Z,7.50
2023-01-13T23:59:07.113Z,7.40
